sensor_id;sensor_type;location;lat;lon;timestamp;pressure;altitude;pressure_sealevel;temperature;humidity
65897;BME280;52677;50.898;10.854;2023-05-08T00:00:27;99160.34;;;6.41;100.00
65897;BME280;52677;50.898;10.854;2023-05-08T00:02:27;99162.41;;;6.44;100.00
65897;BME280;52677;50.898;10.854;2023-05-08T00:04:28;99156.13;;;6.44;100.00
65897;BME280;52677;50.898;10.854;2023-05-08T00:06:28;99148.56;;;6.41;100.00
65897;BME280;52677;50.898;10.854;2023-05-08T00:08:28;99158.41;;;6.42;100.00
65897;BME280;52677;50.898;10.854;2023-05-08T00:10:29;99163.44;;;6.40;100.00
65897;BME280;52677;50.898;10.854;2023-05-08T00:12:29;99156.00;;;6.40;100.00
65897;BME280;52677;50.898;10.854;2023-05-08T00:14:30;99155.84;;;6.37;100.00
65897;BME280;52677;50.898;10.854;2023-05-08T00:16:30;99156.66;;;6.37;100.00
65897;BME280;52677;50.898;10.854;2023-05-08T00:18:31;99148.88;;;6.39;100.00
65897;BME280;52677;50.898;10.854;2023-05-08T00:20:31;99154.22;;;6.36;100.00
65897;BME280;52677;50.898;10.854;2023-05-08T00:22:33;99158.75;;;6.40;100.00
65897;BME280;52677;50.898;10.854;2023-05-08T00:24:33;99157.59;;;6.41;100.00
65897;BME280;52677;50.898;10.854;2023-05-08T00:26:34;99165.50;;;6.43;100.00
65897;BME280;52677;50.898;10.854;2023-05-08T00:28:34;99148.88;;;6.39;100.00
65897;BME280;52677;50.898;10.854;2023-05-08T00:30:34;99154.38;;;6.39;100.00
65897;BME280;52677;50.898;10.854;2023-05-08T00:32:35;99154.38;;;6.39;100.00
65897;BME280;52677;50.898;10.854;2023-05-08T00:34:35;99158.41;;;6.42;100.00
65897;BME280;52677;50.898;10.854;2023-05-08T00:36:35;99153.09;;;6.37;100.00
65897;BME280;52677;50.898;10.854;2023-05-08T00:38:35;99156.66;;;6.37;100.00
65897;BME280;52677;50.898;10.854;2023-05-08T00:40:36;99152.91;;;6.42;100.00
65897;BME280;52677;50.898;10.854;2023-05-08T00:42:36;99158.41;;;6.42;100.00
65897;BME280;52677;50.898;10.854;2023-05-08T00:44:37;99158.41;;;6.42;100.00
65897;BME280;52677;50.898;10.854;2023-05-08T00:46:39;99168.13;;;6.39;100.00
65897;BME280;52677;50.898;10.854;2023-05-08T00:48:41;99148.75;;;6.36;100.00
65897;BME280;52677;50.898;10.854;2023-05-08T00:50:41;99158.28;;;6.38;100.00
65897;BME280;52677;50.898;10.854;2023-05-08T00:52:41;99159.41;;;6.37;100.00
65897;BME280;52677;50.898;10.854;2023-05-08T00:54:42;99148.09;;;6.39;100.00
65897;BME280;52677;50.898;10.854;2023-05-08T00:56:44;99153.94;;;6.37;100.00
65897;BME280;52677;50.898;10.854;2023-05-08T00:58:44;99162.16;;;6.37;100.00
65897;BME280;52677;50.898;10.854;2023-05-08T01:00:45;99161.34;;;6.37;100.00
65897;BME280;52677;50.898;10.854;2023-05-08T01:02:46;99164.25;;;6.40;100.00
65897;BME280;52677;50.898;10.854;2023-05-08T01:04:47;99157.13;;;6.39;100.00
65897;BME280;52677;50.898;10.854;2023-05-08T01:06:47;99157.13;;;6.39;100.00
65897;BME280;52677;50.898;10.854;2023-05-08T01:08:47;99158.94;;;6.35;100.00
65897;BME280;52677;50.898;10.854;2023-05-08T01:13:17;99171.88;;;6.35;100.00
65897;BME280;52677;50.898;10.854;2023-05-08T01:15:27;99171.06;;;6.34;100.00
65897;BME280;52677;50.898;10.854;2023-05-08T01:18:18;99167.97;;;6.36;100.00
65897;BME280;52677;50.898;10.854;2023-05-08T01:20:29;99169.91;;;6.35;100.00
65897;BME280;52677;50.898;10.854;2023-05-08T01:29:51;99180.69;;;6.49;100.00
65897;BME280;52677;50.898;10.854;2023-05-08T01:34:40;99172.88;;;6.51;100.00
65897;BME280;52677;50.898;10.854;2023-05-08T01:36:53;99174.16;;;6.54;100.00
65897;BME280;52677;50.898;10.854;2023-05-08T01:41:27;99172.88;;;6.51;100.00
65897;BME280;52677;50.898;10.854;2023-05-08T01:44:22;99164.19;;;6.49;100.00
65897;BME280;52677;50.898;10.854;2023-05-08T01:46:23;99158.06;;;6.43;100.00
65897;BME280;52677;50.898;10.854;2023-05-08T01:48:27;99171.34;;;6.41;100.00
65897;BME280;52677;50.898;10.854;2023-05-08T01:50:32;99181.06;;;6.39;100.00
65897;BME280;52677;50.898;10.854;2023-05-08T01:52:41;99177.03;;;6.36;100.00
65897;BME280;52677;50.898;10.854;2023-05-08T01:54:47;99177.81;;;6.37;100.00
65897;BME280;52677;50.898;10.854;2023-05-08T01:56:52;99179.13;;;6.39;100.00
65897;BME280;52677;50.898;10.854;2023-05-08T01:58:55;99173.28;;;6.41;100.00
65897;BME280;52677;50.898;10.854;2023-05-08T02:00:58;99184.28;;;6.41;100.00
65897;BME280;52677;50.898;10.854;2023-05-08T02:03:00;99181.25;;;6.34;100.00
65897;BME280;52677;50.898;10.854;2023-05-08T02:05:03;99174.50;;;6.31;100.00
65897;BME280;52677;50.898;10.854;2023-05-08T02:07:05;99179.81;;;6.28;100.00
65897;BME280;52677;50.898;10.854;2023-05-08T02:09:07;99188.88;;;6.28;100.00
65897;BME280;52677;50.898;10.854;2023-05-08T02:11:09;99179.38;;;6.26;100.00
65897;BME280;52677;50.898;10.854;2023-05-08T02:13:11;99187.13;;;6.24;100.00
65897;BME280;52677;50.898;10.854;2023-05-08T02:15:14;99180.03;;;6.23;100.00
65897;BME280;52677;50.898;10.854;2023-05-08T02:17:15;99182.44;;;6.24;100.00
65897;BME280;52677;50.898;10.854;2023-05-08T02:19:17;99187.31;;;6.18;100.00
65897;BME280;52677;50.898;10.854;2023-05-08T02:21:21;99179.59;;;6.12;100.00
65897;BME280;52677;50.898;10.854;2023-05-08T02:23:24;99178.78;;;6.11;100.00
65897;BME280;52677;50.898;10.854;2023-05-08T02:25:26;99177.34;;;6.14;100.00
65897;BME280;52677;50.898;10.854;2023-05-08T02:27:28;99177.34;;;6.14;100.00
65897;BME280;52677;50.898;10.854;2023-05-08T02:29:29;99177.34;;;6.14;100.00
65897;BME280;52677;50.898;10.854;2023-05-08T02:31:30;99172.31;;;6.16;100.00
65897;BME280;52677;50.898;10.854;2023-05-08T02:33:31;99178.75;;;6.20;100.00
65897;BME280;52677;50.898;10.854;2023-05-08T02:35:31;99169.38;;;6.21;100.00
65897;BME280;52677;50.898;10.854;2023-05-08T02:37:32;99175.00;;;6.25;100.00
65897;BME280;52677;50.898;10.854;2023-05-08T02:39:34;99175.34;;;6.23;100.00
65897;BME280;52677;50.898;10.854;2023-05-08T02:41:36;99168.41;;;6.17;100.00
65897;BME280;52677;50.898;10.854;2023-05-08T02:43:40;99174.03;;;6.20;100.00
65897;BME280;52677;50.898;10.854;2023-05-08T02:45:46;99173.75;;;6.22;100.00
65897;BME280;52677;50.898;10.854;2023-05-08T02:50:04;99175.69;;;6.22;100.00
65897;BME280;52677;50.898;10.854;2023-05-08T02:52:27;99172.44;;;6.19;100.00
65897;BME280;52677;50.898;10.854;2023-05-08T02:54:41;99169.56;;;6.16;100.00
65897;BME280;52677;50.898;10.854;2023-05-08T02:56:52;99178.94;;;6.15;100.00
65897;BME280;52677;50.898;10.854;2023-05-08T02:59:00;99165.84;;;6.12;100.00
65897;BME280;52677;50.898;10.854;2023-05-08T03:01:07;99175.56;;;6.09;100.00
65897;BME280;52677;50.898;10.854;2023-05-08T03:03:18;99175.56;;;6.09;100.00
65897;BME280;52677;50.898;10.854;2023-05-08T03:05:28;99177.69;;;6.12;100.00
65897;BME280;52677;50.898;10.854;2023-05-08T03:07:31;99176.03;;;6.11;100.00
65897;BME280;52677;50.898;10.854;2023-05-08T03:09:38;99180.72;;;6.11;100.00
65897;BME280;52677;50.898;10.854;2023-05-08T03:11:41;99171.69;;;6.10;100.00
65897;BME280;52677;50.898;10.854;2023-05-08T03:13:45;99171.88;;;6.05;100.00
65897;BME280;52677;50.898;10.854;2023-05-08T03:16:02;99169.44;;;6.04;100.00
65897;BME280;52677;50.898;10.854;2023-05-08T03:18:07;99174.94;;;6.04;100.00
65897;BME280;52677;50.898;10.854;2023-05-08T03:20:11;99178.84;;;6.03;100.00
65897;BME280;52677;50.898;10.854;2023-05-08T03:22:14;99167.72;;;5.99;100.00
65897;BME280;52677;50.898;10.854;2023-05-08T03:24:17;99171.59;;;5.98;100.00
65897;BME280;52677;50.898;10.854;2023-05-08T03:26:18;99174.53;;;5.93;100.00
65897;BME280;52677;50.898;10.854;2023-05-08T03:28:20;99170.00;;;5.88;100.00
65897;BME280;52677;50.898;10.854;2023-05-08T03:30:22;99175.50;;;5.88;100.00
65897;BME280;52677;50.898;10.854;2023-05-08T03:32:25;99180.50;;;5.86;100.00
65897;BME280;52677;50.898;10.854;2023-05-08T03:34:27;99173.84;;;5.87;100.00
65897;BME280;52677;50.898;10.854;2023-05-08T03:36:29;99172.59;;;5.85;100.00
65897;BME280;52677;50.898;10.854;2023-05-08T03:38:29;99174.41;;;5.81;100.00
65897;BME280;52677;50.898;10.854;2023-05-08T03:40:30;99172.13;;;5.83;100.00
65897;BME280;52677;50.898;10.854;2023-05-08T03:42:36;99176.81;;;5.82;100.00
65897;BME280;52677;50.898;10.854;2023-05-08T03:44:37;99172.13;;;5.83;100.00
65897;BME280;52677;50.898;10.854;2023-05-08T03:46:38;99179.69;;;5.86;100.00
65897;BME280;52677;50.898;10.854;2023-05-08T03:48:41;99177.75;;;5.86;100.00
65897;BME280;52677;50.898;10.854;2023-05-08T03:50:42;99179.34;;;5.87;100.00
65897;BME280;52677;50.898;10.854;2023-05-08T03:52:44;99183.56;;;5.85;100.00
65897;BME280;52677;50.898;10.854;2023-05-08T03:54:44;99176.59;;;5.87;100.00
65897;BME280;52677;50.898;10.854;2023-05-08T03:56:45;99173.84;;;5.87;100.00
65897;BME280;52677;50.898;10.854;2023-05-08T03:58:55;99175.50;;;5.88;100.00
65897;BME280;52677;50.898;10.854;2023-05-08T04:01:04;99179.84;;;5.89;100.00
65897;BME280;52677;50.898;10.854;2023-05-08T04:03:24;99186.31;;;5.94;100.00
65897;BME280;52677;50.898;10.854;2023-05-08T04:10:12;99184.19;;;5.99;100.00
65897;BME280;52677;50.898;10.854;2023-05-08T04:12:19;99186.28;;;6.02;100.00
65897;BME280;52677;50.898;10.854;2023-05-08T04:14:23;99188.69;;;6.04;100.00
65897;BME280;52677;50.898;10.854;2023-05-08T04:16:26;99193.88;;;6.05;100.00
65897;BME280;52677;50.898;10.854;2023-05-08T04:18:28;99188.69;;;6.04;100.00
65897;BME280;52677;50.898;10.854;2023-05-08T04:20:30;99193.38;;;6.03;100.00
65897;BME280;52677;50.898;10.854;2023-05-08T04:22:32;99199.84;;;6.07;100.00
65897;BME280;52677;50.898;10.854;2023-05-08T04:24:38;99186.91;;;6.08;100.00
65897;BME280;52677;50.898;10.854;2023-05-08T04:26:40;99191.25;;;6.09;100.00
65897;BME280;52677;50.898;10.854;2023-05-08T04:28:42;99188.66;;;6.12;100.00
65897;BME280;52677;50.898;10.854;2023-05-08T04:30:43;99190.28;;;6.13;100.00
65897;BME280;52677;50.898;10.854;2023-05-08T04:32:45;99192.69;;;6.15;100.00
65897;BME280;52677;50.898;10.854;2023-05-08T04:34:45;99179.41;;;6.17;100.00
65897;BME280;52677;50.898;10.854;2023-05-08T04:36:46;99181.81;;;6.18;100.00
65897;BME280;52677;50.898;10.854;2023-05-08T04:38:47;99178.44;;;6.22;100.00
65897;BME280;52677;50.898;10.854;2023-05-08T04:40:47;99183.25;;;6.25;100.00
65897;BME280;52677;50.898;10.854;2023-05-08T04:42:48;99184.53;;;6.27;100.00
65897;BME280;52677;50.898;10.854;2023-05-08T04:44:48;99191.63;;;6.28;100.00
65897;BME280;52677;50.898;10.854;2023-05-08T04:46:49;99182.28;;;6.29;100.00
65897;BME280;52677;50.898;10.854;2023-05-08T04:48:49;99182.72;;;6.31;100.00
65897;BME280;52677;50.898;10.854;2023-05-08T04:50:50;99180.78;;;6.32;100.00
65897;BME280;52677;50.898;10.854;2023-05-08T04:52:50;99188.81;;;6.37;100.00
65897;BME280;52677;50.898;10.854;2023-05-08T04:54:50;99191.25;;;6.38;100.00
65897;BME280;52677;50.898;10.854;2023-05-08T04:56:50;99196.41;;;6.40;100.00
65897;BME280;52677;50.898;10.854;2023-05-08T04:58:51;99198.50;;;6.43;100.00
65897;BME280;52677;50.898;10.854;2023-05-08T05:00:51;99192.81;;;6.48;100.00
65897;BME280;52677;50.898;10.854;2023-05-08T05:02:51;99198.44;;;6.52;100.00
65897;BME280;52677;50.898;10.854;2023-05-08T05:04:52;99204.41;;;6.54;100.00
65897;BME280;52677;50.898;10.854;2023-05-08T05:06:52;99201.34;;;6.55;100.00
65897;BME280;52677;50.898;10.854;2023-05-08T05:08:53;99205.69;;;6.56;100.00
65897;BME280;52677;50.898;10.854;2023-05-08T05:10:53;99207.78;;;6.59;100.00
65897;BME280;52677;50.898;10.854;2023-05-08T05:12:53;99207.78;;;6.59;100.00
65897;BME280;52677;50.898;10.854;2023-05-08T05:14:53;99207.13;;;6.62;100.00
65897;BME280;52677;50.898;10.854;2023-05-08T05:16:54;99211.94;;;6.65;100.00
65897;BME280;52677;50.898;10.854;2023-05-08T05:18:54;99203.34;;;6.67;100.00
65897;BME280;52677;50.898;10.854;2023-05-08T05:20:57;99205.28;;;6.66;100.00
65897;BME280;52677;50.898;10.854;2023-05-08T05:22:58;99203.81;;;6.69;100.00
65897;BME280;52677;50.898;10.854;2023-05-08T05:24:58;99214.50;;;6.70;100.00
65897;BME280;52677;50.898;10.854;2023-05-08T05:26:58;99205.91;;;6.72;100.00
65897;BME280;52677;50.898;10.854;2023-05-08T05:28:59;99213.63;;;6.79;100.00
65897;BME280;52677;50.898;10.854;2023-05-08T05:30:59;99212.16;;;6.81;100.00
65897;BME280;52677;50.898;10.854;2023-05-08T05:33:00;99210.66;;;6.84;100.00
65897;BME280;52677;50.898;10.854;2023-05-08T05:35:00;99202.88;;;6.86;100.00
65897;BME280;52677;50.898;10.854;2023-05-08T05:37:00;99205.91;;;6.93;100.00
65897;BME280;52677;50.898;10.854;2023-05-08T05:39:01;99209.13;;;6.95;100.00
65897;BME280;52677;50.898;10.854;2023-05-08T05:41:01;99212.81;;;6.99;100.00
65897;BME280;52677;50.898;10.854;2023-05-08T05:43:01;99206.63;;;7.02;100.00
65897;BME280;52677;50.898;10.854;2023-05-08T05:45:02;99200.13;;;7.07;100.00
65897;BME280;52677;50.898;10.854;2023-05-08T05:47:02;99207.84;;;7.13;100.00
65897;BME280;52677;50.898;10.854;2023-05-08T05:49:04;99202.13;;;7.18;100.00
65897;BME280;52677;50.898;10.854;2023-05-08T05:51:04;99216.38;;;7.20;100.00
65897;BME280;52677;50.898;10.854;2023-05-08T05:53:05;99210.78;;;7.29;100.00
65897;BME280;52677;50.898;10.854;2023-05-08T05:55:06;99212.97;;;7.36;100.00
65897;BME280;52677;50.898;10.854;2023-05-08T05:57:06;99214.72;;;7.40;100.00
65897;BME280;52677;50.898;10.854;2023-05-08T05:59:06;99216.47;;;7.45;100.00
65897;BME280;52677;50.898;10.854;2023-05-08T06:01:07;99212.22;;;7.47;100.00
65897;BME280;52677;50.898;10.854;2023-05-08T06:03:07;99217.03;;;7.50;100.00
65897;BME280;52677;50.898;10.854;2023-05-08T06:05:09;99212.13;;;7.56;100.00
65897;BME280;52677;50.898;10.854;2023-05-08T06:07:10;99208.69;;;7.59;100.00
65897;BME280;52677;50.898;10.854;2023-05-08T06:09:10;99216.75;;;7.64;100.00
65897;BME280;52677;50.898;10.854;2023-05-08T06:11:10;99216.84;;;7.68;100.00
65897;BME280;52677;50.898;10.854;2023-05-08T06:13:11;99222.50;;;7.71;100.00
65897;BME280;52677;50.898;10.854;2023-05-08T06:15:11;99208.25;;;7.69;100.00
65897;BME280;52677;50.898;10.854;2023-05-08T06:17:13;99218.59;;;7.72;100.00
65897;BME280;52677;50.898;10.854;2023-05-08T06:19:14;99213.19;;;7.76;100.00
65897;BME280;52677;50.898;10.854;2023-05-08T06:21:14;99210.09;;;7.77;100.00
65897;BME280;52677;50.898;10.854;2023-05-08T06:23:15;99209.88;;;7.82;100.00
65897;BME280;52677;50.898;10.854;2023-05-08T06:25:15;99205.78;;;7.88;100.00
65897;BME280;52677;50.898;10.854;2023-05-08T06:27:16;99215.53;;;7.98;100.00
65897;BME280;52677;50.898;10.854;2023-05-08T06:29:17;99211.06;;;8.06;100.00
65897;BME280;52677;50.898;10.854;2023-05-08T06:31:17;99207.75;;;8.12;100.00
65897;BME280;52677;50.898;10.854;2023-05-08T06:33:18;99211.53;;;8.20;100.00
65897;BME280;52677;50.898;10.854;2023-05-08T06:35:18;99214.19;;;8.29;100.00
65897;BME280;52677;50.898;10.854;2023-05-08T06:37:18;99210.97;;;8.39;100.00
65897;BME280;52677;50.898;10.854;2023-05-08T06:39:19;99213.72;;;8.51;100.00
65897;BME280;52677;50.898;10.854;2023-05-08T06:41:19;99204.41;;;8.56;100.00
65897;BME280;52677;50.898;10.854;2023-05-08T06:43:20;99213.28;;;8.61;100.00
65897;BME280;52677;50.898;10.854;2023-05-08T06:45:21;99200.38;;;8.65;100.00
65897;BME280;52677;50.898;10.854;2023-05-08T06:47:21;99208.06;;;8.72;100.00
65897;BME280;52677;50.898;10.854;2023-05-08T06:49:22;99196.59;;;8.70;100.00
65897;BME280;52677;50.898;10.854;2023-05-08T06:51:22;99206.59;;;8.62;100.00
65897;BME280;52677;50.898;10.854;2023-05-08T06:53:22;99203.50;;;8.64;100.00
65897;BME280;52677;50.898;10.854;2023-05-08T06:55:23;99196.81;;;8.65;100.00
65897;BME280;52677;50.898;10.854;2023-05-08T06:57:23;99194.06;;;8.65;100.00
65897;BME280;52677;50.898;10.854;2023-05-08T06:59:26;99204.63;;;8.63;100.00
65897;BME280;52677;50.898;10.854;2023-05-08T07:01:26;99209.81;;;8.64;100.00
65897;BME280;52677;50.898;10.854;2023-05-08T07:03:27;99210.59;;;8.65;100.00
65897;BME280;52677;50.898;10.854;2023-05-08T07:05:27;99210.03;;;8.71;100.00
65897;BME280;52677;50.898;10.854;2023-05-08T07:07:28;99205.53;;;8.79;100.00
65897;BME280;52677;50.898;10.854;2023-05-08T07:09:28;99207.69;;;8.86;100.00
65897;BME280;52677;50.898;10.854;2023-05-08T07:11:28;99213.66;;;8.88;100.00
65897;BME280;52677;50.898;10.854;2023-05-08T07:13:28;99211.34;;;8.90;100.00
65897;BME280;52677;50.898;10.854;2023-05-08T07:15:32;99207.66;;;8.98;100.00
65897;BME280;52677;50.898;10.854;2023-05-08T07:17:32;99213.97;;;9.11;100.00
65897;BME280;52677;50.898;10.854;2023-05-08T07:19:36;99218.38;;;9.27;100.00
65897;BME280;52677;50.898;10.854;2023-05-08T07:21:37;99220.28;;;9.39;100.00
65897;BME280;52677;50.898;10.854;2023-05-08T07:23:37;99211.03;;;9.47;100.00
65897;BME280;52677;50.898;10.854;2023-05-08T07:25:38;99212.09;;;9.58;100.00
65897;BME280;52677;50.898;10.854;2023-05-08T07:27:38;99214.69;;;9.51;100.00
65897;BME280;52677;50.898;10.854;2023-05-08T07:29:38;99207.31;;;9.55;100.00
65897;BME280;52677;50.898;10.854;2023-05-08T07:31:40;99212.47;;;9.57;100.00
65897;BME280;52677;50.898;10.854;2023-05-08T07:33:40;99211.78;;;9.60;100.00
65897;BME280;52677;50.898;10.854;2023-05-08T07:35:41;99213.38;;;9.61;100.00
65897;BME280;52677;50.898;10.854;2023-05-08T07:37:41;99208.13;;;9.72;100.00
65897;BME280;52677;50.898;10.854;2023-05-08T07:39:42;99207.59;;;9.82;100.00
65897;BME280;52677;50.898;10.854;2023-05-08T07:41:42;99207.72;;;9.85;100.00
65897;BME280;52677;50.898;10.854;2023-05-08T07:43:42;99212.72;;;9.96;100.00
65897;BME280;52677;50.898;10.854;2023-05-08T07:45:44;99217.69;;;10.06;100.00
65897;BME280;52677;50.898;10.854;2023-05-08T07:47:51;99215.66;;;10.19;100.00
65897;BME280;52677;50.898;10.854;2023-05-08T07:49:52;99207.81;;;10.21;100.00
65897;BME280;52677;50.898;10.854;2023-05-08T07:51:52;99211.28;;;10.33;100.00
65897;BME280;52677;50.898;10.854;2023-05-08T07:53:52;99198.44;;;10.41;100.00
65897;BME280;52677;50.898;10.854;2023-05-08T07:55:54;99201.00;;;10.50;100.00
65897;BME280;52677;50.898;10.854;2023-05-08T07:57:54;99201.34;;;10.64;100.00
65897;BME280;52677;50.898;10.854;2023-05-08T08:00:00;99203.09;;;10.72;100.00
65897;BME280;52677;50.898;10.854;2023-05-08T08:02:00;99198.97;;;10.82;100.00
65897;BME280;52677;50.898;10.854;2023-05-08T08:04:01;99196.78;;;10.91;100.00
65897;BME280;52677;50.898;10.854;2023-05-08T08:06:01;99203.28;;;10.98;100.00
65897;BME280;52677;50.898;10.854;2023-05-08T08:08:02;99203.38;;;11.02;100.00
65897;BME280;52677;50.898;10.854;2023-05-08T08:10:03;99205.91;;;11.11;100.00
65897;BME280;52677;50.898;10.854;2023-05-08T08:12:06;99207.81;;;11.07;100.00
65897;BME280;52677;50.898;10.854;2023-05-08T08:14:06;99208.22;;;11.09;100.00
65897;BME280;52677;50.898;10.854;2023-05-08T08:16:06;99210.56;;;11.07;100.00
65897;BME280;52677;50.898;10.854;2023-05-08T08:18:07;99200.66;;;11.06;100.00
65897;BME280;52677;50.898;10.854;2023-05-08T08:20:07;99204.38;;;11.13;100.00
65897;BME280;52677;50.898;10.854;2023-05-08T08:22:08;99199.28;;;11.15;100.00
65897;BME280;52677;50.898;10.854;2023-05-08T08:24:08;99200.22;;;11.23;100.00
65897;BME280;52677;50.898;10.854;2023-05-08T08:26:09;99206.88;;;11.38;100.00
65897;BME280;52677;50.898;10.854;2023-05-08T08:28:09;99198.38;;;11.50;100.00
65897;BME280;52677;50.898;10.854;2023-05-08T08:30:09;99203.91;;;11.50;100.00
65897;BME280;52677;50.898;10.854;2023-05-08T08:32:10;99201.16;;;11.50;100.00
65897;BME280;52677;50.898;10.854;2023-05-08T08:34:10;99208.97;;;11.44;100.00
65897;BME280;52677;50.898;10.854;2023-05-08T08:36:12;99205.53;;;11.51;100.00
65897;BME280;52677;50.898;10.854;2023-05-08T08:38:12;99204.75;;;11.50;100.00
65897;BME280;52677;50.898;10.854;2023-05-08T08:40:13;99207.19;;;11.56;100.00
65897;BME280;52677;50.898;10.854;2023-05-08T08:42:13;99198.97;;;11.59;100.00
65897;BME280;52677;50.898;10.854;2023-05-08T08:44:14;99204.16;;;11.61;100.00
65897;BME280;52677;50.898;10.854;2023-05-08T08:46:15;99195.41;;;11.59;100.00
65897;BME280;52677;50.898;10.854;2023-05-08T08:48:19;99196.19;;;11.59;100.00
65897;BME280;52677;50.898;10.854;2023-05-08T08:50:22;99197.81;;;11.60;100.00
65897;BME280;52677;50.898;10.854;2023-05-08T08:52:46;99189.16;;;11.65;100.00
65897;BME280;52677;50.898;10.854;2023-05-08T08:54:48;99182.97;;;11.72;100.00
65897;BME280;52677;50.898;10.854;2023-05-08T08:56:50;99187.50;;;11.80;100.00
65897;BME280;52677;50.898;10.854;2023-05-08T08:58:55;99195.25;;;11.94;100.00
65897;BME280;52677;50.898;10.854;2023-05-08T09:00:56;99186.38;;;12.07;100.00
65897;BME280;52677;50.898;10.854;2023-05-08T09:02:57;99190.94;;;12.19;100.00
65897;BME280;52677;50.898;10.854;2023-05-08T09:04:58;99191.59;;;12.35;100.00
65897;BME280;52677;50.898;10.854;2023-05-08T09:07:00;99179.44;;;12.44;100.00
65897;BME280;52677;50.898;10.854;2023-05-08T09:09:04;99184.28;;;12.50;100.00
65897;BME280;52677;50.898;10.854;2023-05-08T09:11:04;99184.72;;;12.52;100.00
65897;BME280;52677;50.898;10.854;2023-05-08T09:13:05;99191.19;;;12.60;100.00
65897;BME280;52677;50.898;10.854;2023-05-08T09:15:05;99193.47;;;12.54;100.00
65897;BME280;52677;50.898;10.854;2023-05-08T09:17:06;99196.34;;;12.61;100.00
65897;BME280;52677;50.898;10.854;2023-05-08T09:19:06;99192.13;;;12.71;100.00
65897;BME280;52677;50.898;10.854;2023-05-08T09:21:08;99187.88;;;12.81;100.00
65897;BME280;52677;50.898;10.854;2023-05-08T09:23:09;99180.03;;;12.86;100.00
65897;BME280;52677;50.898;10.854;2023-05-08T09:25:09;99178.38;;;12.82;100.00
65897;BME280;52677;50.898;10.854;2023-05-08T09:27:20;99185.59;;;12.86;100.00
65897;BME280;52677;50.898;10.854;2023-05-08T09:29:21;99184.91;;;12.93;100.00
65897;BME280;52677;50.898;10.854;2023-05-08T09:31:33;99187.31;;;12.98;100.00
65897;BME280;52677;50.898;10.854;2023-05-08T09:33:43;99183.66;;;12.90;100.00
65897;BME280;52677;50.898;10.854;2023-05-08T09:35:43;99184.47;;;12.91;100.00
65897;BME280;52677;50.898;10.854;2023-05-08T09:37:43;99190.72;;;12.84;100.00
65897;BME280;52677;50.898;10.854;2023-05-08T09:39:45;99181.53;;;12.80;100.00
65897;BME280;52677;50.898;10.854;2023-05-08T09:42:16;99185.56;;;12.83;100.00
65897;BME280;52677;50.898;10.854;2023-05-08T09:44:16;99191.16;;;12.86;100.00
65897;BME280;52677;50.898;10.854;2023-05-08T09:46:24;99183.34;;;12.96;100.00
65897;BME280;52677;50.898;10.854;2023-05-08T09:48:37;99186.19;;;12.99;100.00
65897;BME280;52677;50.898;10.854;2023-05-08T09:50:37;99185.44;;;13.06;100.00
65897;BME280;52677;50.898;10.854;2023-05-08T09:52:45;99180.75;;;13.10;100.00
65897;BME280;52677;50.898;10.854;2023-05-08T09:54:45;99181.78;;;13.28;100.00
65897;BME280;52677;50.898;10.854;2023-05-08T09:56:47;99180.38;;;13.45;99.63
65897;BME280;52677;50.898;10.854;2023-05-08T09:58:47;99178.28;;;13.72;100.00
65897;BME280;52677;50.898;10.854;2023-05-08T10:00:47;99184.47;;;13.95;100.00
65897;BME280;52677;50.898;10.854;2023-05-08T10:02:57;99176.28;;;14.13;100.00
65897;BME280;52677;50.898;10.854;2023-05-08T10:04:57;99179.53;;;14.22;99.13
65897;BME280;52677;50.898;10.854;2023-05-08T10:06:58;99176.00;;;14.29;95.92
65897;BME280;52677;50.898;10.854;2023-05-08T10:09:12;99177.19;;;14.28;97.95
65897;BME280;52677;50.898;10.854;2023-05-08T10:11:16;99178.41;;;14.30;100.00
65897;BME280;52677;50.898;10.854;2023-05-08T10:13:17;99178.84;;;14.36;91.78
65897;BME280;52677;50.898;10.854;2023-05-08T10:15:17;99174.50;;;14.39;93.24
65897;BME280;52677;50.898;10.854;2023-05-08T10:17:34;99175.03;;;14.51;95.88
65897;BME280;52677;50.898;10.854;2023-05-08T10:19:39;99183.44;;;14.62;94.33
65897;BME280;52677;50.898;10.854;2023-05-08T10:21:46;99181.53;;;14.73;95.58
65897;BME280;52677;50.898;10.854;2023-05-08T10:23:48;99175.22;;;14.83;89.45
65897;BME280;52677;50.898;10.854;2023-05-08T10:25:55;99175.63;;;14.89;89.30
65897;BME280;52677;50.898;10.854;2023-05-08T10:30:23;99175.75;;;15.14;90.24
65897;BME280;52677;50.898;10.854;2023-05-08T10:32:27;99179.41;;;15.29;87.14
65897;BME280;52677;50.898;10.854;2023-05-08T10:34:27;99179.81;;;15.38;89.96
65897;BME280;52677;50.898;10.854;2023-05-08T10:36:30;99170.66;;;15.37;88.23
65897;BME280;52677;50.898;10.854;2023-05-08T10:38:31;99179.09;;;15.48;92.32
65897;BME280;52677;50.898;10.854;2023-05-08T10:40:32;99173.88;;;15.46;84.46
65897;BME280;52677;50.898;10.854;2023-05-08T10:42:33;99171.88;;;15.43;83.71
65897;BME280;52677;50.898;10.854;2023-05-08T10:44:37;99177.97;;;15.67;85.13
65897;BME280;52677;50.898;10.854;2023-05-08T10:47:00;99172.78;;;15.65;84.81
65897;BME280;52677;50.898;10.854;2023-05-08T10:53:50;99172.81;;;16.01;87.94
65897;BME280;52677;50.898;10.854;2023-05-08T10:55:51;99163.66;;;16.08;85.97
65897;BME280;52677;50.898;10.854;2023-05-08T10:58:09;99168.44;;;16.18;83.53
65897;BME280;52677;50.898;10.854;2023-05-08T11:00:10;99170.44;;;16.17;80.68
65897;BME280;52677;50.898;10.854;2023-05-08T11:02:11;99162.84;;;16.21;83.70
65897;BME280;52677;50.898;10.854;2023-05-08T11:04:29;99170.03;;;16.37;90.43
65897;BME280;52677;50.898;10.854;2023-05-08T11:06:46;99172.41;;;16.52;88.58
65897;BME280;52677;50.898;10.854;2023-05-08T11:08:50;99163.59;;;16.61;84.95